Weather at Olimpoi Aerodrome

Public forecast

Using degrees Celsius for public forecast. Weather courtesy of forecast.io.

Closest aviation weather report (METAR) to Olimpoi Aerodrome

Closest report is Chios Island National Airport, 11.5 nm (21.3 km) NE.

2024/05/24 18:50 (retrieved 59 minutes ago)

LGHI 241850Z 00000KT CAVOK 21/12 Q1013

Closest aviation forecast (TAF) to Olimpoi Aerodrome

Closest forecast is Adnan Menderes International Airport, 57.5 nm (106.5 km) E.

2024/05/24 18:00 (retrieved 2 hours ago)

TAF LTBJ 241640Z 2418/2518 35015G25KT CAVOK BECMG 2418/2421 35009KT BECMG 2506/2509 36016G26KT FEW030 BECMG 2512/2515 CAVOK